createdAt,value
2024-01-10T00:00:20.131Z,27.55
2024-01-10T00:01:27.850Z,26.95
2024-01-10T00:02:30.690Z,24.88
2024-01-10T00:03:33.593Z,27.75
2024-01-10T00:04:36.215Z,24.67
2024-01-10T00:05:38.747Z,28.98
2024-01-10T00:06:41.197Z,28.52
2024-01-10T00:07:43.685Z,26.77
2024-01-10T00:08:46.284Z,26.60
2024-01-10T00:09:48.825Z,27.08
2024-01-10T00:10:53.053Z,27.38
2024-01-10T00:11:55.592Z,28.55
2024-01-10T00:12:58.053Z,26.80
2024-01-10T00:14:01.419Z,25.77
2024-01-10T00:15:07.264Z,28.00
2024-01-10T00:16:10.085Z,29.70
2024-01-10T00:17:13.146Z,26.45
2024-01-10T00:18:15.883Z,28.25
2024-01-10T00:19:18.621Z,26.63
2024-01-10T00:20:21.197Z,25.25
2024-01-10T00:21:23.912Z,30.00
2024-01-10T00:22:26.439Z,31.83
2024-01-10T00:23:28.945Z,29.55
2024-01-10T00:24:31.415Z,28.60
2024-01-10T00:25:34.062Z,29.33
2024-01-10T00:26:36.591Z,29.17
2024-01-10T00:27:39.118Z,26.88
2024-01-10T00:28:41.592Z,28.50
2024-01-10T00:29:44.147Z,31.40
2024-01-10T00:30:51.013Z,33.30
2024-01-10T00:31:54.446Z,30.75
2024-01-10T00:32:56.987Z,32.20
2024-01-10T00:33:59.739Z,31.70
2024-01-10T00:35:02.723Z,28.02
2024-01-10T00:36:05.745Z,31.08
2024-01-10T00:37:08.259Z,29.98
2024-01-10T00:38:11.146Z,31.20
2024-01-10T00:39:13.811Z,29.92
2024-01-10T00:40:16.333Z,27.73
2024-01-10T00:42:21.313Z,32.30
2024-01-10T00:43:23.819Z,32.55
2024-01-10T00:44:26.561Z,30.02
2024-01-10T00:45:29.098Z,33.63
2024-01-10T00:46:31.607Z,33.25
2024-01-10T00:47:34.169Z,31.90
2024-01-10T00:48:36.800Z,33.05
2024-01-10T00:49:39.534Z,32.67
2024-01-10T00:50:42.146Z,34.60
2024-01-10T00:51:44.711Z,34.55
2024-01-10T00:52:47.926Z,37.15
2024-01-10T00:53:50.464Z,30.73
2024-01-10T00:54:53.031Z,31.17
2024-01-10T00:55:55.655Z,32.58
2024-01-10T00:56:58.162Z,33.00
2024-01-10T00:58:00.630Z,31.50
2024-01-10T00:59:03.169Z,33.20
2024-01-10T01:00:07.764Z,32.97
2024-01-10T01:01:10.269Z,32.08
2024-01-10T01:02:12.933Z,33.15
2024-01-10T01:03:15.405Z,34.60
2024-01-10T01:04:18.504Z,33.20
2024-01-10T01:05:21.139Z,30.77
2024-01-10T01:06:23.661Z,30.30
2024-01-10T01:07:26.901Z,33.08
2024-01-10T01:08:29.461Z,33.80
2024-01-10T01:09:31.990Z,31.05
2024-01-10T01:10:37.827Z,30.58
2024-01-10T01:11:41.025Z,31.48
2024-01-10T01:12:43.511Z,30.92
2024-01-10T01:13:46.034Z,31.00
2024-01-10T01:14:48.475Z,32.25
2024-01-10T01:15:50.943Z,33.80
2024-01-10T01:16:53.672Z,28.27
2024-01-10T01:17:56.181Z,31.58
2024-01-10T01:18:58.804Z,30.90
2024-01-10T01:20:01.816Z,32.60
2024-01-10T01:21:04.793Z,33.60
2024-01-10T01:22:07.209Z,30.13
2024-01-10T01:23:09.775Z,31.05
2024-01-10T01:24:12.546Z,30.85
2024-01-10T01:25:15.110Z,32.40
2024-01-10T01:26:17.747Z,29.75
2024-01-10T01:27:20.304Z,31.98
2024-01-10T01:28:22.746Z,29.73
2024-01-10T01:29:25.479Z,34.00
2024-01-10T01:30:28.061Z,32.25
2024-01-10T01:31:31.443Z,33.90
2024-01-10T01:32:34.089Z,32.95
2024-01-10T01:33:37.297Z,34.33
2024-01-10T01:34:39.965Z,33.53
2024-01-10T01:35:42.469Z,29.98
2024-01-10T01:36:45.041Z,32.95
2024-01-10T01:37:47.505Z,32.75
2024-01-10T01:38:50.027Z,30.15
2024-01-10T01:39:52.389Z,30.33
2024-01-10T01:40:55.091Z,30.08
2024-01-10T01:41:57.581Z,32.42
2024-01-10T01:43:00.298Z,29.92
2024-01-10T01:44:02.906Z,30.50
2024-01-10T01:45:05.949Z,31.02
2024-01-10T01:46:09.744Z,32.58
2024-01-10T01:47:12.546Z,30.30
2024-01-10T01:48:15.590Z,28.30
2024-01-10T01:49:18.364Z,28.55
2024-01-10T01:50:21.166Z,32.42
2024-01-10T01:51:24.832Z,31.35
2024-01-10T01:52:27.276Z,30.65
2024-01-10T01:53:30.300Z,33.42
2024-01-10T01:54:34.172Z,29.98
2024-01-10T01:55:37.064Z,33.20
2024-01-10T01:56:40.903Z,30.92
2024-01-10T01:57:43.502Z,30.35
2024-01-10T01:58:47.640Z,32.13
2024-01-10T01:59:50.784Z,28.30
2024-01-10T02:00:53.936Z,31.27
2024-01-10T02:01:58.126Z,30.38
2024-01-10T02:03:01.896Z,30.85
2024-01-10T02:04:04.838Z,34.15
2024-01-10T02:05:07.801Z,33.22
2024-01-10T02:06:10.365Z,29.85
2024-01-10T02:07:13.731Z,33.17
2024-01-10T02:08:16.317Z,31.17
2024-01-10T02:09:19.211Z,31.48
2024-01-10T02:10:21.843Z,33.33
2024-01-10T02:11:26.047Z,33.47
2024-01-10T02:12:29.591Z,35.70
2024-01-10T02:13:36.306Z,33.85
2024-01-10T02:14:39.062Z,33.50
2024-01-10T02:15:41.695Z,33.38
2024-01-10T02:16:44.437Z,34.38
2024-01-10T02:17:47.027Z,33.60
2024-01-10T02:18:50.154Z,31.10
2024-01-10T02:20:12.742Z,36.13
2024-01-10T02:21:15.178Z,30.58
2024-01-10T02:22:17.617Z,31.45
2024-01-10T02:23:20.169Z,34.15
2024-01-10T02:24:22.647Z,34.97
2024-01-10T02:25:25.274Z,32.25
2024-01-10T02:26:28.631Z,33.53
2024-01-10T02:27:31.626Z,33.03
2024-01-10T02:28:34.175Z,38.38
2024-01-10T02:29:37.030Z,36.10
2024-01-10T02:30:39.538Z,34.03
2024-01-10T02:31:42.188Z,36.25
2024-01-10T02:32:45.583Z,32.97
2024-01-10T02:33:48.148Z,33.33
2024-01-10T02:34:50.895Z,38.00
2024-01-10T02:35:53.373Z,35.35
2024-01-10T02:36:55.932Z,35.88
2024-01-10T02:37:58.518Z,35.38
2024-01-10T02:39:01.160Z,35.47
2024-01-10T02:40:05.016Z,35.25
2024-01-10T02:41:07.543Z,34.13
2024-01-10T02:42:10.094Z,36.22
2024-01-10T02:43:12.544Z,32.63
2024-01-10T02:44:15.708Z,32.85
2024-01-10T02:45:19.351Z,31.45
2024-01-10T02:46:23.931Z,34.38
2024-01-10T02:47:26.498Z,31.52
2024-01-10T02:48:29.076Z,33.25
2024-01-10T02:49:31.495Z,30.40
2024-01-10T02:50:34.051Z,30.38
2024-01-10T02:51:36.680Z,30.88
2024-01-10T02:52:39.161Z,33.45
2024-01-10T02:53:41.913Z,31.17
2024-01-10T02:54:44.459Z,31.05
2024-01-10T02:55:47.812Z,32.10
2024-01-10T02:56:50.328Z,34.40
2024-01-10T02:57:52.900Z,29.02
2024-01-10T02:58:55.447Z,33.65
2024-01-10T02:59:57.866Z,31.80
2024-01-10T03:01:00.397Z,32.65
2024-01-10T03:02:03.208Z,34.38
2024-01-10T03:03:06.049Z,31.55
2024-01-10T03:04:08.554Z,29.70
2024-01-10T03:05:11.148Z,31.70
2024-01-10T03:06:13.820Z,33.17
2024-01-10T03:07:16.389Z,30.85
2024-01-10T03:08:19.196Z,30.95
2024-01-10T03:09:21.762Z,31.52
2024-01-10T03:10:24.328Z,32.20
2024-01-10T03:11:26.802Z,32.42
2024-01-10T03:12:29.258Z,31.05
2024-01-10T03:13:33.803Z,31.27
2024-01-10T03:14:36.491Z,32.30
2024-01-10T03:15:39.008Z,33.00
2024-01-10T03:16:41.785Z,31.40
2024-01-10T03:17:44.463Z,32.78
2024-01-10T03:18:47.132Z,31.52
2024-01-10T03:19:49.772Z,29.73
2024-01-10T03:20:52.409Z,29.42
2024-01-10T03:21:55.231Z,28.98
2024-01-10T03:22:57.813Z,29.08
2024-01-10T03:24:02.006Z,27.55
2024-01-10T03:25:04.922Z,28.27
2024-01-10T03:26:07.368Z,26.05
2024-01-10T03:27:09.993Z,26.23
2024-01-10T03:28:16.160Z,26.20
2024-01-10T03:29:18.560Z,25.08
2024-01-10T03:30:21.147Z,25.88
2024-01-10T03:31:23.852Z,26.27
2024-01-10T03:32:26.550Z,27.55
2024-01-10T03:33:29.333Z,24.70
2024-01-10T03:34:31.918Z,29.00
2024-01-10T03:35:34.389Z,24.75
2024-01-10T03:36:36.966Z,25.85
2024-01-10T03:37:39.873Z,25.48
2024-01-10T03:38:42.336Z,23.90
2024-01-10T03:39:45.063Z,25.60
2024-01-10T03:40:47.654Z,23.90
2024-01-10T03:41:50.297Z,21.80
2024-01-10T03:42:52.769Z,23.77
2024-01-10T03:43:55.976Z,25.58
2024-01-10T03:44:58.476Z,25.20
2024-01-10T03:46:00.974Z,24.33
2024-01-10T03:47:04.239Z,23.95
2024-01-10T03:48:07.678Z,26.50
2024-01-10T03:49:10.259Z,25.88
2024-01-10T03:50:12.745Z,24.88
2024-01-10T03:51:17.185Z,23.80
2024-01-10T03:52:20.369Z,28.33
2024-01-10T03:53:22.933Z,26.20
2024-01-10T03:54:25.444Z,29.23
2024-01-10T03:55:27.920Z,32.53
2024-01-10T03:56:33.228Z,33.15
2024-01-10T03:57:37.401Z,30.27
2024-01-10T03:58:40.196Z,32.88
2024-01-10T03:59:42.685Z,32.53
2024-01-10T04:00:45.306Z,36.55
2024-01-10T04:01:47.923Z,34.90
2024-01-10T04:02:52.722Z,34.28
2024-01-10T04:03:55.466Z,31.42
2024-01-10T04:04:58.086Z,33.42
2024-01-10T04:06:00.666Z,32.45
2024-01-10T04:07:03.234Z,35.42
2024-01-10T04:08:06.285Z,33.65
2024-01-10T04:09:10.920Z,34.83
2024-01-10T04:10:15.605Z,33.45
2024-01-10T04:11:18.783Z,33.90
2024-01-10T04:12:21.278Z,33.05
2024-01-10T04:13:23.796Z,34.13
2024-01-10T04:14:26.226Z,30.90
2024-01-10T04:15:28.839Z,31.80
2024-01-10T04:16:31.417Z,32.08
2024-01-10T04:17:34.301Z,32.22
2024-01-10T04:18:37.471Z,31.00
2024-01-10T04:19:40.234Z,32.75
2024-01-10T04:20:43.468Z,34.47
2024-01-10T04:21:46.087Z,34.38
2024-01-10T04:22:48.574Z,32.42
2024-01-10T04:23:53.036Z,31.35
2024-01-10T04:24:58.344Z,35.22
2024-01-10T04:26:04.744Z,31.25
2024-01-10T04:27:09.236Z,31.20
2024-01-10T04:28:13.045Z,32.25
2024-01-10T04:29:15.622Z,31.10
2024-01-10T04:30:18.558Z,29.17
2024-01-10T04:31:21.236Z,30.27
2024-01-10T04:32:23.769Z,30.85
2024-01-10T04:33:26.405Z,32.85
2024-01-10T04:34:28.905Z,27.98
2024-01-10T04:35:31.737Z,29.65
2024-01-10T04:36:34.413Z,29.08
2024-01-10T04:37:37.091Z,33.47
2024-01-10T04:38:39.598Z,30.80
2024-01-10T04:39:44.115Z,33.05
2024-01-10T04:40:46.683Z,32.10
2024-01-10T04:41:50.337Z,32.17
2024-01-10T04:42:53.040Z,34.47
2024-01-10T04:43:55.480Z,30.48
2024-01-10T04:44:58.019Z,32.95
2024-01-10T04:46:00.569Z,33.55
2024-01-10T04:47:03.180Z,30.70
2024-01-10T04:48:06.187Z,32.05
2024-01-10T04:49:08.993Z,34.25
2024-01-10T04:50:14.142Z,35.20
2024-01-10T04:51:17.380Z,40.33
2024-01-10T04:52:19.842Z,42.30
2024-01-10T04:53:22.428Z,43.72
2024-01-10T04:54:24.874Z,48.88
2024-01-10T04:55:27.276Z,46.83
2024-01-10T04:56:30.000Z,50.90
2024-01-10T04:57:33.049Z,46.65
2024-01-10T04:58:36.317Z,38.75
2024-01-10T04:59:38.832Z,38.13
2024-01-10T05:00:41.330Z,36.38
2024-01-10T05:01:43.963Z,37.20
2024-01-10T05:02:46.731Z,34.35
2024-01-10T05:03:49.212Z,35.47
2024-01-10T05:04:52.015Z,36.10
2024-01-10T05:05:54.731Z,34.33
2024-01-10T05:06:57.414Z,36.70
2024-01-10T05:08:00.043Z,36.97
2024-01-10T05:09:02.836Z,40.83
2024-01-10T05:10:06.244Z,36.78
2024-01-10T05:11:08.906Z,35.33
2024-01-10T05:12:11.427Z,40.35
2024-01-10T05:13:14.365Z,40.78
2024-01-10T05:14:16.933Z,37.10
2024-01-10T05:15:20.472Z,39.03
2024-01-10T05:16:22.982Z,36.90
2024-01-10T05:17:25.457Z,39.53
2024-01-10T05:18:28.071Z,38.72
2024-01-10T05:19:30.812Z,39.22
2024-01-10T05:20:33.522Z,37.10
2024-01-10T05:21:36.026Z,39.90
2024-01-10T05:22:38.655Z,42.17
2024-01-10T05:23:41.573Z,40.47
2024-01-10T05:24:44.040Z,38.85
2024-01-10T05:25:46.625Z,38.63
2024-01-10T05:26:52.489Z,35.78
2024-01-10T05:27:54.964Z,36.15
2024-01-10T05:28:57.831Z,36.85
2024-01-10T05:30:01.172Z,37.20
2024-01-10T05:31:04.146Z,35.55
2024-01-10T05:32:07.514Z,37.65
2024-01-10T05:33:10.897Z,35.67
2024-01-10T05:34:13.961Z,34.63
2024-01-10T05:35:17.007Z,35.97
2024-01-10T05:36:23.649Z,37.75
2024-01-10T05:37:26.078Z,32.92
2024-01-10T05:38:28.653Z,34.42
2024-01-10T05:39:32.223Z,31.90
2024-01-10T05:40:34.765Z,36.80
2024-01-10T05:41:40.409Z,35.45
2024-01-10T05:42:43.298Z,31.33
2024-01-10T05:43:45.813Z,30.23
2024-01-10T05:44:48.622Z,32.30
2024-01-10T05:45:51.138Z,35.38
2024-01-10T05:46:53.986Z,32.45
2024-01-10T05:47:56.937Z,32.55
2024-01-10T05:48:59.530Z,32.25
2024-01-10T05:50:02.726Z,33.03
2024-01-10T05:51:05.727Z,32.65
2024-01-10T05:52:08.143Z,30.50
2024-01-10T05:53:11.612Z,31.13
2024-01-10T05:54:14.134Z,27.23
2024-01-10T05:55:16.660Z,30.25
2024-01-10T05:56:19.385Z,29.80
2024-01-10T05:57:22.718Z,29.40
2024-01-10T05:58:25.179Z,30.30
2024-01-10T05:59:29.796Z,30.08
2024-01-10T06:00:33.289Z,30.50
2024-01-10T06:01:35.845Z,30.17
2024-01-10T06:02:41.543Z,33.78
2024-01-10T06:03:44.041Z,33.92
2024-01-10T06:04:47.170Z,35.53
2024-01-10T06:05:49.876Z,34.83
2024-01-10T06:06:52.396Z,33.70
2024-01-10T06:07:55.162Z,34.28
2024-01-10T06:08:57.802Z,32.50
2024-01-10T06:10:00.394Z,35.25
2024-01-10T06:11:10.355Z,36.15
2024-01-10T06:12:13.032Z,34.72
2024-01-10T06:13:15.821Z,33.10
2024-01-10T06:14:19.107Z,37.13
2024-01-10T06:15:21.604Z,43.38
2024-01-10T06:16:24.311Z,39.45
2024-01-10T06:17:26.791Z,38.92
2024-01-10T06:18:29.456Z,37.42
2024-01-10T06:19:35.258Z,47.70
2024-01-10T06:20:40.404Z,46.33
2024-01-10T06:21:43.448Z,47.42
2024-01-10T06:22:47.879Z,56.25
2024-01-10T06:23:50.696Z,70.18
2024-01-10T06:24:54.088Z,87.15
2024-01-10T06:25:56.754Z,84.95
2024-01-10T06:27:00.340Z,67.47
2024-01-10T06:28:03.277Z,58.83
2024-01-10T06:29:05.898Z,52.53
2024-01-10T06:30:09.176Z,48.28
2024-01-10T06:31:12.698Z,43.28
2024-01-10T06:32:15.937Z,43.55
2024-01-10T06:33:19.045Z,41.70
2024-01-10T06:34:21.600Z,42.72
2024-01-10T06:35:24.184Z,38.15
2024-01-10T06:36:26.687Z,38.03
2024-01-10T06:37:29.662Z,39.45
2024-01-10T06:38:32.388Z,35.20
2024-01-10T06:39:35.129Z,33.25
2024-01-10T06:40:38.364Z,37.75
2024-01-10T06:41:41.484Z,36.45
2024-01-10T06:42:44.034Z,38.20
2024-01-10T06:43:46.487Z,34.53
2024-01-10T06:44:49.003Z,33.30
2024-01-10T06:45:51.686Z,36.38
2024-01-10T06:46:54.111Z,30.58
2024-01-10T06:47:56.704Z,37.53
2024-01-10T06:49:00.445Z,36.40
2024-01-10T06:50:03.166Z,35.38
2024-01-10T06:51:10.403Z,35.50
2024-01-10T06:52:12.974Z,36.63
2024-01-10T06:53:15.503Z,32.65
2024-01-10T06:54:19.547Z,32.20
2024-01-10T06:55:23.322Z,32.83
2024-01-10T06:56:25.920Z,35.78
2024-01-10T06:57:28.455Z,33.88
2024-01-10T06:58:30.993Z,32.08
2024-01-10T06:59:33.612Z,33.00
2024-01-10T07:00:36.280Z,32.50
2024-01-10T07:01:40.766Z,33.15
2024-01-10T07:02:43.535Z,32.85
2024-01-10T07:03:46.658Z,30.70
2024-01-10T07:04:49.593Z,31.38
2024-01-10T07:05:52.360Z,29.00
2024-01-10T07:06:54.860Z,36.28
2024-01-10T07:07:57.428Z,32.90
2024-01-10T07:08:59.965Z,33.55
2024-01-10T07:10:06.136Z,31.58
2024-01-10T07:11:08.962Z,34.03
2024-01-10T07:12:11.643Z,32.05
2024-01-10T07:13:14.098Z,32.80
2024-01-10T07:14:17.482Z,33.15
2024-01-10T07:15:20.105Z,37.88
2024-01-10T07:16:23.661Z,32.90
2024-01-10T07:17:26.482Z,34.05
2024-01-10T07:18:32.185Z,34.92
2024-01-10T07:19:34.768Z,34.78
2024-01-10T07:20:38.952Z,36.53
2024-01-10T07:21:42.208Z,33.92
2024-01-10T07:22:45.731Z,35.90
2024-01-10T07:23:48.324Z,35.45
2024-01-10T07:24:51.022Z,34.42
2024-01-10T07:25:53.841Z,32.75
2024-01-10T07:26:58.294Z,31.80
2024-01-10T07:28:01.004Z,36.00
2024-01-10T07:29:04.060Z,37.60
2024-01-10T07:30:14.801Z,36.90
2024-01-10T07:31:17.846Z,33.35
2024-01-10T07:32:21.563Z,35.92
2024-01-10T07:33:24.221Z,35.53
2024-01-10T07:34:26.924Z,35.08
2024-01-10T07:35:30.504Z,34.42
2024-01-10T07:36:35.076Z,39.05
2024-01-10T07:37:41.936Z,37.40
2024-01-10T07:38:44.704Z,37.00
2024-01-10T07:39:47.173Z,33.97
2024-01-10T07:40:49.737Z,34.78
2024-01-10T07:41:53.209Z,33.50
2024-01-10T07:42:56.847Z,32.95
2024-01-10T07:43:59.425Z,35.13
2024-01-10T07:45:05.686Z,37.72
2024-01-10T07:46:08.369Z,40.03
2024-01-10T07:47:11.753Z,37.38
2024-01-10T07:48:14.324Z,39.60
2024-01-10T07:49:17.979Z,37.72
2024-01-10T07:50:21.118Z,42.13
2024-01-10T07:51:23.738Z,43.83
2024-01-10T07:52:26.380Z,38.35
2024-01-10T07:53:28.996Z,39.75
2024-01-10T07:54:33.312Z,37.40
2024-01-10T07:55:35.814Z,35.72
2024-01-10T07:56:38.736Z,36.20
2024-01-10T07:57:43.556Z,33.10
2024-01-10T07:58:46.006Z,36.58
2024-01-10T07:59:48.538Z,34.40
2024-01-10T08:00:52.637Z,32.33
2024-01-10T08:01:59.793Z,33.08
2024-01-10T08:03:02.574Z,34.08
2024-01-10T08:04:05.804Z,35.38
2024-01-10T08:05:14.172Z,35.33
2024-01-10T08:06:23.569Z,35.35
2024-01-10T08:07:30.319Z,34.28
2024-01-10T08:08:33.952Z,39.20
2024-01-10T08:09:37.791Z,33.58
2024-01-10T08:10:41.237Z,37.05
2024-01-10T08:11:44.495Z,31.63
2024-01-10T08:12:47.047Z,38.85
2024-01-10T08:13:49.799Z,39.72
2024-01-10T08:14:52.200Z,35.80
2024-01-10T08:15:55.624Z,36.35
2024-01-10T08:16:59.632Z,36.22
2024-01-10T08:18:06.228Z,39.08
2024-01-10T08:19:11.329Z,36.92
2024-01-10T08:20:16.288Z,39.03
2024-01-10T08:21:18.932Z,38.22
2024-01-10T08:22:21.798Z,37.47
2024-01-10T08:23:24.268Z,34.22
2024-01-10T08:24:27.075Z,37.35
2024-01-10T08:25:29.525Z,39.20
2024-01-10T08:26:32.323Z,40.40
2024-01-10T08:27:34.816Z,41.58
2024-01-10T08:28:37.280Z,39.22
2024-01-10T08:29:39.906Z,39.72
2024-01-10T08:30:42.505Z,38.95
2024-01-10T08:31:45.474Z,36.17
2024-01-10T08:32:48.162Z,36.40
2024-01-10T08:33:50.942Z,39.17
2024-01-10T08:34:53.580Z,37.97
2024-01-10T08:35:57.500Z,37.03
2024-01-10T08:37:00.104Z,37.85
2024-01-10T08:38:06.213Z,37.80
2024-01-10T08:39:09.477Z,36.00
2024-01-10T08:40:13.529Z,34.88
2024-01-10T08:41:16.114Z,33.63
2024-01-10T08:42:18.692Z,34.83
2024-01-10T08:43:21.098Z,34.25
2024-01-10T08:44:24.038Z,32.40
2024-01-10T08:45:26.704Z,34.58
2024-01-10T08:46:29.408Z,35.42
2024-01-10T08:47:33.975Z,33.92
2024-01-10T08:48:37.845Z,35.20
2024-01-10T08:49:40.718Z,38.80
2024-01-10T08:50:45.090Z,40.75
2024-01-10T08:51:47.741Z,37.08
2024-01-10T08:52:50.612Z,34.50
2024-01-10T08:53:54.138Z,32.70
2024-01-10T08:54:57.599Z,36.30
2024-01-10T08:56:00.246Z,39.10
2024-01-10T08:57:04.065Z,40.63
2024-01-10T08:58:06.689Z,36.47
2024-01-10T08:59:09.333Z,36.90
2024-01-10T09:00:13.584Z,35.08
2024-01-10T09:01:16.874Z,34.30
2024-01-10T09:02:19.535Z,35.22
2024-01-10T09:03:22.049Z,33.58
2024-01-10T09:04:24.825Z,35.90
2024-01-10T09:05:27.717Z,35.10
2024-01-10T09:06:30.330Z,37.17
2024-01-10T09:07:32.840Z,37.25
2024-01-10T09:08:36.110Z,36.38
2024-01-10T09:09:40.431Z,37.10
2024-01-10T09:10:43.154Z,37.38
2024-01-10T09:11:46.566Z,37.97
2024-01-10T09:12:49.324Z,37.40
2024-01-10T09:13:52.549Z,38.85
2024-01-10T09:14:55.818Z,36.40
2024-01-10T09:15:58.306Z,38.85
2024-01-10T09:17:03.832Z,38.28
2024-01-10T09:18:06.713Z,38.88
2024-01-10T09:19:11.969Z,41.72
2024-01-10T09:20:17.231Z,41.85
2024-01-10T09:21:22.218Z,40.30
2024-01-10T09:22:25.143Z,40.03
2024-01-10T09:23:28.772Z,40.33
2024-01-10T09:24:31.266Z,40.20
2024-01-10T09:25:33.752Z,38.28
2024-01-10T09:26:36.780Z,36.45
2024-01-10T09:27:45.469Z,37.38
2024-01-10T09:28:48.092Z,38.60
2024-01-10T09:29:50.773Z,39.65
2024-01-10T09:30:53.489Z,35.90
2024-01-10T09:31:56.170Z,38.38
2024-01-10T09:33:00.513Z,37.95
2024-01-10T09:34:03.094Z,40.38
2024-01-10T09:35:06.136Z,41.53
2024-01-10T09:36:08.995Z,41.70
2024-01-10T09:37:11.990Z,38.83
2024-01-10T09:38:14.755Z,36.78
2024-01-10T09:39:18.076Z,41.17
2024-01-10T09:40:22.367Z,41.85
2024-01-10T09:41:30.732Z,40.70
2024-01-10T09:42:36.232Z,41.05
2024-01-10T09:43:38.897Z,38.83
2024-01-10T09:44:41.857Z,40.03
2024-01-10T09:45:47.711Z,40.30
2024-01-10T09:46:55.456Z,36.65
2024-01-10T09:47:59.716Z,35.72
2024-01-10T09:49:03.038Z,37.72
2024-01-10T09:50:06.597Z,36.88
2024-01-10T09:51:10.272Z,32.60
2024-01-10T09:52:26.324Z,38.85
2024-01-10T09:53:31.259Z,33.72
2024-01-10T09:54:36.589Z,39.15
2024-01-10T09:55:40.493Z,36.80
2024-01-10T09:56:43.694Z,36.25
2024-01-10T09:57:46.369Z,37.17
2024-01-10T09:58:51.804Z,37.00
2024-01-10T09:59:56.459Z,35.33
2024-01-10T10:00:59.108Z,36.10
2024-01-10T10:02:05.574Z,35.13
2024-01-10T10:03:16.163Z,35.85
2024-01-10T10:04:21.476Z,35.47
2024-01-10T10:05:24.849Z,34.63
2024-01-10T10:06:27.625Z,33.05
2024-01-10T10:07:30.326Z,36.85
2024-01-10T10:08:33.208Z,40.40
2024-01-10T10:09:35.752Z,39.10
2024-01-10T10:10:44.432Z,35.15
2024-01-10T10:11:55.700Z,35.83
2024-01-10T10:12:59.532Z,33.85
2024-01-10T10:14:19.563Z,34.15
2024-01-10T10:15:29.010Z,32.63
2024-01-10T10:16:31.463Z,32.85
2024-01-10T10:17:34.076Z,34.67
2024-01-10T10:18:37.368Z,31.85
2024-01-10T10:19:41.600Z,37.80
2024-01-10T10:20:44.357Z,38.42
2024-01-10T10:21:47.103Z,34.22
2024-01-10T10:23:00.021Z,36.85
2024-01-10T10:24:05.115Z,34.63
2024-01-10T10:25:08.123Z,35.50
2024-01-10T10:26:22.090Z,33.90
2024-01-10T10:27:25.207Z,37.45
2024-01-10T10:28:35.984Z,35.65
2024-01-10T10:29:39.354Z,34.97
2024-01-10T10:30:41.825Z,35.17
2024-01-10T10:31:48.181Z,35.15
2024-01-10T10:32:51.988Z,38.55
2024-01-10T10:33:54.679Z,36.10
2024-01-10T10:34:57.966Z,37.40
2024-01-10T10:36:00.632Z,37.25
2024-01-10T10:37:04.365Z,35.03
2024-01-10T10:38:10.826Z,32.53
2024-01-10T10:39:18.102Z,32.88
2024-01-10T10:40:21.966Z,33.20
2024-01-10T10:41:26.802Z,32.40
2024-01-10T10:42:32.234Z,31.55
2024-01-10T10:43:37.308Z,30.83
2024-01-10T10:44:42.814Z,33.08
2024-01-10T10:45:52.743Z,33.10
2024-01-10T10:47:06.215Z,32.58
2024-01-10T10:48:22.901Z,34.53
2024-01-10T10:49:32.969Z,32.00
2024-01-10T10:50:37.867Z,34.22
2024-01-10T10:51:42.576Z,34.67
2024-01-10T10:52:49.829Z,32.28
2024-01-10T10:53:52.993Z,36.75
2024-01-10T10:54:58.348Z,34.50
2024-01-10T10:56:03.374Z,34.88
2024-01-10T10:57:07.947Z,34.72
2024-01-10T10:58:12.601Z,33.35
2024-01-10T10:59:18.056Z,31.65
2024-01-10T11:00:23.072Z,35.28
2024-01-10T11:01:29.177Z,34.42
2024-01-10T11:02:32.431Z,36.67
2024-01-10T11:03:39.619Z,34.05
2024-01-10T11:04:43.505Z,33.70
2024-01-10T11:05:47.440Z,33.15
2024-01-10T11:06:50.857Z,30.67
2024-01-10T11:07:56.400Z,30.65
2024-01-10T11:09:12.572Z,32.45
2024-01-10T11:10:22.073Z,30.42
2024-01-10T11:12:01.351Z,28.65
2024-01-10T11:13:24.486Z,29.17
2024-01-10T11:15:10.725Z,30.70
2024-01-10T11:16:16.090Z,26.25
2024-01-10T11:17:35.923Z,29.33
2024-01-10T11:18:56.002Z,34.30
2024-01-10T11:20:11.488Z,33.42
2024-01-10T11:21:35.144Z,32.75
2024-01-10T11:22:55.143Z,28.15
2024-01-10T11:24:00.565Z,31.05
2024-01-10T11:25:03.477Z,28.48
2024-01-10T11:26:09.210Z,30.25
2024-01-10T11:27:16.761Z,31.05
2024-01-10T11:28:19.444Z,27.58
2024-01-10T11:29:23.122Z,27.70
2024-01-10T11:30:48.621Z,30.33
2024-01-10T11:31:53.783Z,27.40
2024-01-10T11:32:58.187Z,27.95
2024-01-10T11:34:02.840Z,29.27
2024-01-10T11:35:22.091Z,28.35
2024-01-10T11:36:26.048Z,30.08
2024-01-10T11:37:45.294Z,26.40
2024-01-10T11:38:54.529Z,27.83
2024-01-10T11:39:57.026Z,27.75
2024-01-10T11:40:59.612Z,25.55
2024-01-10T11:42:02.744Z,26.98
2024-01-10T11:43:05.169Z,29.27
2024-01-10T11:44:14.718Z,29.92
2024-01-10T11:45:35.247Z,29.65
2024-01-10T11:46:57.563Z,27.92
2024-01-10T11:48:00.351Z,26.30
2024-01-10T11:49:03.042Z,27.33
2024-01-10T11:50:08.916Z,29.30
2024-01-10T11:51:11.916Z,29.77
2024-01-10T11:52:18.288Z,29.33
2024-01-10T11:53:43.537Z,26.80
2024-01-10T11:54:46.987Z,27.70
2024-01-10T11:55:53.788Z,27.10
2024-01-10T11:56:56.396Z,26.08
2024-01-10T11:58:11.972Z,26.73
2024-01-10T11:59:17.994Z,25.02
2024-01-10T12:00:22.023Z,27.08
2024-01-10T12:01:24.743Z,26.55
2024-01-10T12:02:28.232Z,25.95
2024-01-10T12:03:32.349Z,28.33
2024-01-10T12:04:45.702Z,26.85
2024-01-10T12:05:52.350Z,25.92
2024-01-10T12:06:55.138Z,23.10
2024-01-10T12:08:00.451Z,25.90
2024-01-10T12:09:09.484Z,25.27
2024-01-10T12:10:12.216Z,24.90
2024-01-10T12:11:14.859Z,24.80
2024-01-10T12:12:17.539Z,25.95
2024-01-10T12:13:20.123Z,24.60
2024-01-10T12:14:22.822Z,24.83
2024-01-10T12:15:25.346Z,22.98
2024-01-10T12:16:28.590Z,24.73
2024-01-10T12:17:31.271Z,21.88
2024-01-10T12:18:34.065Z,25.23
2024-01-10T12:19:38.612Z,23.38
2024-01-10T12:20:41.320Z,27.75
2024-01-10T12:21:43.941Z,26.55
2024-01-10T12:22:46.514Z,24.40
2024-01-10T12:23:49.752Z,26.00
2024-01-10T12:24:53.738Z,23.42
2024-01-10T12:25:56.289Z,26.98
2024-01-10T12:26:58.704Z,25.98
2024-01-10T12:28:05.538Z,26.27
2024-01-10T12:29:08.233Z,24.35
2024-01-10T12:30:11.326Z,25.27
2024-01-10T12:31:14.302Z,23.50
2024-01-10T12:32:20.854Z,22.42
2024-01-10T12:33:25.366Z,22.27
2024-01-10T12:34:27.996Z,25.88
2024-01-10T12:35:30.682Z,22.38
2024-01-10T12:36:33.352Z,24.35
2024-01-10T12:37:35.820Z,24.50
2024-01-10T12:38:39.972Z,23.48
2024-01-10T12:39:42.728Z,21.40
2024-01-10T12:40:45.452Z,20.83
2024-01-10T12:41:47.974Z,23.30
2024-01-10T12:42:50.594Z,22.42
2024-01-10T12:43:56.914Z,22.27
2024-01-10T12:44:59.429Z,21.70
2024-01-10T12:46:08.575Z,22.40
2024-01-10T12:47:22.379Z,20.90
2024-01-10T12:48:25.574Z,21.23
2024-01-10T12:49:28.161Z,22.63
2024-01-10T12:50:31.152Z,20.35
2024-01-10T12:51:37.671Z,19.77
2024-01-10T12:52:42.350Z,19.60
2024-01-10T12:53:45.773Z,19.05
2024-01-10T12:54:48.366Z,22.27
2024-01-10T12:55:51.140Z,20.23
2024-01-10T12:56:53.807Z,21.35
2024-01-10T12:58:00.852Z,20.60
2024-01-10T12:59:05.367Z,17.35
2024-01-10T13:00:09.818Z,20.02
2024-01-10T13:01:13.126Z,19.20
2024-01-10T13:02:15.840Z,20.15
2024-01-10T13:03:18.368Z,19.60
2024-01-10T13:04:21.283Z,17.88
2024-01-10T13:05:23.857Z,19.95
2024-01-10T13:06:26.385Z,19.90
2024-01-10T13:07:32.231Z,22.17
2024-01-10T13:08:34.851Z,20.60
2024-01-10T13:09:38.549Z,20.88
2024-01-10T13:10:41.529Z,20.00
2024-01-10T13:11:44.571Z,19.08
2024-01-10T13:12:48.534Z,17.67
2024-01-10T13:13:51.261Z,20.45
2024-01-10T13:14:54.457Z,20.42
2024-01-10T13:15:57.408Z,19.98
2024-01-10T13:17:00.721Z,23.75
2024-01-10T13:18:04.096Z,23.50
2024-01-10T13:19:07.099Z,21.83
2024-01-10T13:20:11.459Z,21.75
2024-01-10T13:21:14.609Z,23.30
2024-01-10T13:22:20.299Z,24.02
2024-01-10T13:23:26.180Z,20.38
2024-01-10T13:24:28.832Z,22.25
2024-01-10T13:25:31.803Z,21.23
2024-01-10T13:26:34.578Z,22.45
2024-01-10T13:27:37.262Z,20.58
2024-01-10T13:28:39.743Z,20.25
2024-01-10T13:29:42.201Z,20.52
2024-01-10T13:30:44.833Z,20.10
2024-01-10T13:31:50.805Z,19.45
2024-01-10T13:32:53.692Z,19.85
2024-01-10T13:33:56.755Z,18.08
2024-01-10T13:34:59.437Z,20.20
2024-01-10T13:36:02.445Z,20.40
2024-01-10T13:37:06.007Z,20.33
2024-01-10T13:38:11.464Z,19.75
2024-01-10T13:39:16.703Z,19.52
2024-01-10T13:40:22.084Z,19.58
2024-01-10T13:41:24.686Z,19.05
2024-01-10T13:42:27.364Z,20.73
2024-01-10T13:43:29.835Z,21.52
2024-01-10T13:44:32.424Z,20.48